Nave Titan — 3FKP — position and weather

sailwx.info

Track history (hours):
 
Tides and Currents Weather Stations Pressure Air Temp Water Temp Dewpoint Dewpoint Depression Visibility Wind Speed Wind Dir Waves Ship Positions

Nave Titan

Last reported at 2018-Jan-22 10:30 UTC. Time now 2018-Jan-22 10:40 UTC.
Position N 10°37' W 016°59'.

Length 183 m; draft 11.5 m.

Type: Ship. MMSI: 353962000.

Date/timePositionNaut miles runAvg speedWind from/ knotsBaromVisibWave heightAir tempDewpointWater temp
2018-Jan-22 10:30N 10°37' W 016°59'612.9
2018-Jan-22 10:00N 10°43' W 017°02'1513.4
2018-Jan-22 08:53N 10°56' W 017°09'613.4
2018-Jan-22 08:27N 11°02' W 017°12'613.6
2018-Jan-22 08:00N 11°07' W 017°15'713.7
2018-Jan-22 07:30N 11°13' W 017°18'713.4
2018-Jan-22 06:59N 11°19' W 017°21'713.8
2018-Jan-22 06:30N 11°25' W 017°24'713.4
2018-Jan-22 05:58N 11°32' W 017°27'713.2
2018-Jan-22 05:25N 11°39' W 017°29'  
2018-Jan-18 23:47N 27°30' W 015°16'412.6
2018-Jan-18 23:30N 27°33' W 015°14'612.9
2018-Jan-18 23:00N 27°39' W 015°12'612.6
2018-Jan-18 22:30N 27°45' W 015°10'612.8
2018-Jan-18 22:00N 27°51' W 015°08'612.8
2018-Jan-18 21:30N 27°57' W 015°05'712.8
2018-Jan-18 20:57N 28°04' W 015°02'612.8
2018-Jan-18 20:30N 28°09' W 014°60'612.6
2018-Jan-18 20:00N 28°15' W 014°57'612.8
2018-Jan-18 19:30N 28°21' W 014°55'612.6
2018-Jan-18 19:00N 28°27' W 014°53'612.5
2018-Jan-18 18:30N 28°33' W 014°52'712.8
2018-Jan-18 18:00N 28°40' W 014°50'612.9
2018-Jan-18 17:30N 28°46' W 014°49'  
2018-Jan-12 14:17N 52°24' E 004°46'0 0.0
2018-Jan-12 13:59N 52°24' E 004°46'0 0.0
2018-Jan-12 11:47N 52°24' E 004°46'0 0.0
2018-Jan-12 11:29N 52°24' E 004°46'0 0.0
2018-Jan-12 10:47N 52°24' E 004°46'  
Track history (hours):
 
Tides and Currents Weather Stations Pressure Air Temp Water Temp Dewpoint Dewpoint Depression Visibility Wind Speed Wind Dir Waves Ship Positions

Nave Titan

Last reported at 2018-Jan-22 10:30 UTC. Time now 2018-Jan-22 10:40 UTC.
Position N 10°37' W 016°59'.

Length 183 m; draft 11.5 m.

Type: Ship. MMSI: 353962000.

Date/timePositionNaut miles runAvg speedWind from/ knotsBaromVisibWave heightAir tempDewpointWater temp
2018-Jan-22 10:30N 10°37' W 016°59'612.9
2018-Jan-22 10:00N 10°43' W 017°02'1513.4
2018-Jan-22 08:53N 10°56' W 017°09'613.4
2018-Jan-22 08:27N 11°02' W 017°12'613.6
2018-Jan-22 08:00N 11°07' W 017°15'713.7
2018-Jan-22 07:30N 11°13' W 017°18'713.4
2018-Jan-22 06:59N 11°19' W 017°21'713.8
2018-Jan-22 06:30N 11°25' W 017°24'713.4
2018-Jan-22 05:58N 11°32' W 017°27'713.2
2018-Jan-22 05:25N 11°39' W 017°29'  
2018-Jan-18 23:47N 27°30' W 015°16'412.6
2018-Jan-18 23:30N 27°33' W 015°14'612.9
2018-Jan-18 23:00N 27°39' W 015°12'612.6
2018-Jan-18 22:30N 27°45' W 015°10'612.8
2018-Jan-18 22:00N 27°51' W 015°08'612.8
2018-Jan-18 21:30N 27°57' W 015°05'712.8
2018-Jan-18 20:57N 28°04' W 015°02'612.8
2018-Jan-18 20:30N 28°09' W 014°60'612.6
2018-Jan-18 20:00N 28°15' W 014°57'612.8
2018-Jan-18 19:30N 28°21' W 014°55'612.6
2018-Jan-18 19:00N 28°27' W 014°53'612.5
2018-Jan-18 18:30N 28°33' W 014°52'712.8
2018-Jan-18 18:00N 28°40' W 014°50'612.9
2018-Jan-18 17:30N 28°46' W 014°49'  
2018-Jan-12 14:17N 52°24' E 004°46'0 0.0
2018-Jan-12 13:59N 52°24' E 004°46'0 0.0
2018-Jan-12 11:47N 52°24' E 004°46'0 0.0
2018-Jan-12 11:29N 52°24' E 004°46'0 0.0
2018-Jan-12 10:47N 52°24' E 004°46'  

Dump ship's entire track history